sensor_id;sensor_type;location;lat;lon;timestamp;pressure;altitude;pressure_sealevel;temperature;humidity
16100;BME280;8154;50.830;12.082;2023-02-28T00:52:27;100654.56;;;20.29;30.16
16100;BME280;8154;50.830;12.082;2023-02-28T00:54:52;100657.91;;;20.31;30.11
16100;BME280;8154;50.830;12.082;2023-02-28T00:57:19;100652.59;;;20.31;30.24
16100;BME280;8154;50.830;12.082;2023-02-28T00:59:45;100654.56;;;20.29;30.01
16100;BME280;8154;50.830;12.082;2023-02-28T01:02:10;100654.56;;;20.29;30.07
16100;BME280;8154;50.830;12.082;2023-02-28T01:04:36;100651.22;;;20.27;30.28
16100;BME280;8154;50.830;12.082;2023-02-28T01:07:03;100644.25;;;20.26;30.28
16100;BME280;8154;50.830;12.082;2023-02-28T01:09:29;100651.97;;;20.20;30.27
16100;BME280;8154;50.830;12.082;2023-02-28T01:11:56;100648.00;;;20.24;30.32
16100;BME280;8154;50.830;12.082;2023-02-28T01:14:22;100650.00;;;20.22;30.35
16100;BME280;8154;50.830;12.082;2023-02-28T01:16:48;100643.41;;;20.26;30.21
16100;BME280;8154;50.830;12.082;2023-02-28T01:19:14;100640.88;;;20.34;29.96
16100;BME280;8154;50.830;12.082;2023-02-28T01:21:40;100636.66;;;20.31;30.20
16100;BME280;8154;50.830;12.082;2023-02-28T01:24:07;100638.88;;;20.36;30.04
16100;BME280;8154;50.830;12.082;2023-02-28T01:26:33;100632.59;;;20.37;30.08
16100;BME280;8154;50.830;12.082;2023-02-28T01:28:59;100636.38;;;20.34;30.15
16100;BME280;8154;50.830;12.082;2023-02-28T01:31:25;100630.97;;;20.26;30.29
16100;BME280;8154;50.830;12.082;2023-02-28T01:33:52;100633.94;;;20.23;30.21
16100;BME280;8154;50.830;12.082;2023-02-28T01:36:21;100630.88;;;20.18;30.43
16100;BME280;8154;50.830;12.082;2023-02-28T01:38:47;100639.53;;;20.20;30.28
16100;BME280;8154;50.830;12.082;2023-02-28T01:41:23;100626.66;;;20.16;30.42
16100;BME280;8154;50.830;12.082;2023-02-28T01:46:15;100627.59;;;20.34;30.06
16100;BME280;8154;50.830;12.082;2023-02-28T01:48:48;100626.19;;;20.30;30.23
16100;BME280;8154;50.830;12.082;2023-02-28T01:51:31;100629.69;;;20.30;30.22
16100;BME280;8154;50.830;12.082;2023-02-28T01:54:02;100631.50;;;20.30;30.13
16100;BME280;8154;50.830;12.082;2023-02-28T01:56:33;100626.63;;;20.25;30.11
16100;BME280;8154;50.830;12.082;2023-02-28T01:59:01;100628.84;;;20.30;30.25
16100;BME280;8154;50.830;12.082;2023-02-28T02:01:29;100619.50;;;20.26;30.07
16100;BME280;8154;50.830;12.082;2023-02-28T02:03:59;100618.16;;;20.22;30.33
16100;BME280;8154;50.830;12.082;2023-02-28T02:06:34;100627.22;;;20.19;30.28
16100;BME280;8154;50.830;12.082;2023-02-28T02:09:02;100620.09;;;20.20;30.34
16100;BME280;8154;50.830;12.082;2023-02-28T02:11:29;100617.00;;;20.24;30.32
16100;BME280;8154;50.830;12.082;2023-02-28T02:17:33;100614.06;;;20.27;30.15
16100;BME280;8154;50.830;12.082;2023-02-28T02:36:22;100606.25;;;20.26;30.13
16100;BME280;8154;50.830;12.082;2023-02-28T02:38:54;100600.50;;;20.30;30.31
16100;BME280;8154;50.830;12.082;2023-02-28T02:41:54;100609.44;;;20.29;30.35
16100;BME280;8154;50.830;12.082;2023-02-28T02:44:40;100599.34;;;20.33;30.21
16100;BME280;8154;50.830;12.082;2023-02-28T02:47:13;100604.00;;;20.31;30.21
16100;BME280;8154;50.830;12.082;2023-02-28T02:49:45;100601.78;;;20.26;30.17
16100;BME280;8154;50.830;12.082;2023-02-28T02:52:15;100608.91;;;20.26;30.23
16100;BME280;8154;50.830;12.082;2023-02-28T02:54:45;100611.84;;;20.23;30.22
16100;BME280;8154;50.830;12.082;2023-02-28T02:57:38;100611.84;;;20.23;30.37
16100;BME280;8154;50.830;12.082;2023-02-28T03:00:08;100613.81;;;20.21;30.39
16100;BME280;8154;50.830;12.082;2023-02-28T03:02:36;100610.25;;;20.30;30.02
16100;BME280;8154;50.830;12.082;2023-02-28T03:05:18;100612.63;;;20.33;30.15
16100;BME280;8154;50.830;12.082;2023-02-28T03:07:44;100611.66;;;20.34;30.04
16100;BME280;8154;50.830;12.082;2023-02-28T03:10:43;100611.66;;;20.34;30.07
16100;BME280;8154;50.830;12.082;2023-02-28T03:13:15;100615.13;;;20.34;30.08
16100;BME280;8154;50.830;12.082;2023-02-28T03:18:29;100609.75;;;20.26;30.19
16100;BME280;8154;50.830;12.082;2023-02-28T03:21:11;100614.34;;;20.24;30.16
16100;BME280;8154;50.830;12.082;2023-02-28T03:23:48;100615.78;;;20.19;30.29
16100;BME280;8154;50.830;12.082;2023-02-28T03:26:22;100614.25;;;20.16;30.44
16100;BME280;8154;50.830;12.082;2023-02-28T03:31:21;100615.41;;;20.31;30.11
16100;BME280;8154;50.830;12.082;2023-02-28T03:36:27;100610.25;;;20.30;30.07
16100;BME280;8154;50.830;12.082;2023-02-28T03:39:08;100613.63;;;20.32;29.97
16100;BME280;8154;50.830;12.082;2023-02-28T03:41:45;100620.72;;;20.31;30.09
16100;BME280;8154;50.830;12.082;2023-02-28T03:44:25;100613.34;;;20.25;30.31
16100;BME280;8154;50.830;12.082;2023-02-28T03:47:21;100610.03;;;20.23;30.20
16100;BME280;8154;50.830;12.082;2023-02-28T03:49:54;100611.16;;;20.21;30.22
16100;BME280;8154;50.830;12.082;2023-02-28T05:51:48;100662.00;;;20.26;30.19
16100;BME280;8154;50.830;12.082;2023-02-28T05:54:14;100661.59;;;20.21;30.21
16100;BME280;8154;50.830;12.082;2023-02-28T05:56:40;100663.69;;;20.17;30.39
16100;BME280;8154;50.830;12.082;2023-02-28T05:59:10;100664.09;;;20.13;30.42
16100;BME280;8154;50.830;12.082;2023-02-28T06:01:41;100668.19;;;20.17;30.43
16100;BME280;8154;50.830;12.082;2023-02-28T06:04:09;100674.72;;;20.22;30.29
16100;BME280;8154;50.830;12.082;2023-02-28T06:06:36;100666.31;;;20.27;30.11
16100;BME280;8154;50.830;12.082;2023-02-28T06:09:06;100670.50;;;20.29;30.18
16100;BME280;8154;50.830;12.082;2023-02-28T06:11:33;100671.63;;;20.27;30.14
16100;BME280;8154;50.830;12.082;2023-02-28T06:14:00;100674.81;;;20.30;30.28
16100;BME280;8154;50.830;12.082;2023-02-28T06:16:28;100677.19;;;20.33;30.17
16100;BME280;8154;50.830;12.082;2023-02-28T06:19:00;100681.28;;;20.28;30.26
16100;BME280;8154;50.830;12.082;2023-02-28T06:21:29;100684.75;;;20.28;30.25
16100;BME280;8154;50.830;12.082;2023-02-28T06:23:56;100687.69;;;20.25;30.17
16100;BME280;8154;50.830;12.082;2023-02-28T06:26:24;100684.81;;;20.19;30.35
16100;BME280;8154;50.830;12.082;2023-02-28T06:28:50;100686.16;;;20.32;30.26
16100;BME280;8154;50.830;12.082;2023-02-28T06:31:17;100686.97;;;20.33;30.21
16100;BME280;8154;50.830;12.082;2023-02-28T06:33:45;100688.38;;;20.37;30.08
16100;BME280;8154;50.830;12.082;2023-02-28T06:36:13;100698.00;;;20.38;30.12
16100;BME280;8154;50.830;12.082;2023-02-28T06:38:40;100695.63;;;20.35;30.00
16100;BME280;8154;50.830;12.082;2023-02-28T06:41:07;100703.59;;;20.35;30.05
16100;BME280;8154;50.830;12.082;2023-02-28T06:43:39;100711.56;;;20.35;30.07
16100;BME280;8154;50.830;12.082;2023-02-28T06:46:08;100718.69;;;20.34;30.02
16100;BME280;8154;50.830;12.082;2023-02-28T06:48:34;100715.78;;;20.28;30.17
16100;BME280;8154;50.830;12.082;2023-02-28T06:51:05;100721.69;;;20.22;30.47
16100;BME280;8154;50.830;12.082;2023-02-28T06:53:33;100724.13;;;20.33;30.05
16100;BME280;8154;50.830;12.082;2023-02-28T06:56:06;100722.88;;;20.37;30.06
16100;BME280;8154;50.830;12.082;2023-02-28T06:58:34;100725.53;;;20.37;30.01
16100;BME280;8154;50.830;12.082;2023-02-28T07:01:01;100729.84;;;20.38;30.15
16100;BME280;8154;50.830;12.082;2023-02-28T07:03:27;100726.38;;;20.37;30.09
16100;BME280;8154;50.830;12.082;2023-02-28T07:05:53;100725.53;;;20.37;30.17
16100;BME280;8154;50.830;12.082;2023-02-28T07:08:25;100731.94;;;20.34;30.25
16100;BME280;8154;50.830;12.082;2023-02-28T07:10:56;100726.66;;;20.34;29.99
16100;BME280;8154;50.830;12.082;2023-02-28T07:13:23;100724.69;;;20.36;30.03
16100;BME280;8154;50.830;12.082;2023-02-28T07:15:56;100731.00;;;20.35;30.18
16100;BME280;8154;50.830;12.082;2023-02-28T07:18:22;100736.31;;;20.35;30.17
16100;BME280;8154;50.830;12.082;2023-02-28T07:20:49;100737.00;;;20.37;30.09
16100;BME280;8154;50.830;12.082;2023-02-28T07:23:16;100741.72;;;20.43;30.02
16100;BME280;8154;50.830;12.082;2023-02-28T07:25:42;100741.72;;;20.43;30.07
16100;BME280;8154;50.830;12.082;2023-02-28T07:28:09;100741.16;;;20.49;30.01
16100;BME280;8154;50.830;12.082;2023-02-28T07:30:35;100739.91;;;20.44;30.09
16100;BME280;8154;50.830;12.082;2023-02-28T07:33:01;100739.66;;;20.37;30.04
16100;BME280;8154;50.830;12.082;2023-02-28T07:35:27;100736.00;;;20.38;30.14
16100;BME280;8154;50.830;12.082;2023-02-28T07:37:53;100735.88;;;20.40;29.96
16100;BME280;8154;50.830;12.082;2023-02-28T07:40:19;100747.34;;;20.40;30.10
16100;BME280;8154;50.830;12.082;2023-02-28T07:42:45;100739.78;;;20.36;30.29
16100;BME280;8154;50.830;12.082;2023-02-28T07:45:12;100739.06;;;20.43;30.07
16100;BME280;8154;50.830;12.082;2023-02-28T07:47:39;100744.63;;;20.50;29.84
16100;BME280;8154;50.830;12.082;2023-02-28T07:50:06;100738.34;;;20.51;29.82
16100;BME280;8154;50.830;12.082;2023-02-28T12:00:19;100704.00;;;21.21;29.28
16100;BME280;8154;50.830;12.082;2023-02-28T12:03:17;100704.16;;;21.19;29.34
16100;BME280;8154;50.830;12.082;2023-02-28T12:06:15;100697.72;;;21.22;29.32
16100;BME280;8154;50.830;12.082;2023-02-28T12:12:15;100693.31;;;21.13;29.45
16100;BME280;8154;50.830;12.082;2023-02-28T12:17:45;100701.69;;;21.08;29.34
16100;BME280;8154;50.830;12.082;2023-02-28T12:25:31;100700.03;;;21.07;29.43
16100;BME280;8154;50.830;12.082;2023-02-28T12:28:04;100700.34;;;21.04;29.44
16100;BME280;8154;50.830;12.082;2023-02-28T12:30:32;100694.47;;;21.01;29.59
16100;BME280;8154;50.830;12.082;2023-02-28T12:33:20;100685.25;;;21.05;29.48
16100;BME280;8154;50.830;12.082;2023-02-28T12:35:56;100695.72;;;21.06;29.38
16100;BME280;8154;50.830;12.082;2023-02-28T12:38:29;100688.19;;;21.02;29.54
16100;BME280;8154;50.830;12.082;2023-02-28T12:41:03;100688.72;;;21.05;29.43
16100;BME280;8154;50.830;12.082;2023-02-28T12:43:42;100676.56;;;21.03;29.46
16100;BME280;8154;50.830;12.082;2023-02-28T12:46:14;100676.41;;;21.04;29.34
16100;BME280;8154;50.830;12.082;2023-02-28T12:48:55;100670.25;;;21.04;29.38
16100;BME280;8154;50.830;12.082;2023-02-28T12:51:24;100653.66;;;21.02;29.38
16100;BME280;8154;50.830;12.082;2023-02-28T13:09:59;100665.31;;;20.91;29.58
16100;BME280;8154;50.830;12.082;2023-02-28T13:12:26;100669.63;;;20.92;29.45
16100;BME280;8154;50.830;12.082;2023-02-28T13:15:16;100669.06;;;20.89;29.59
16100;BME280;8154;50.830;12.082;2023-02-28T13:17:48;100659.97;;;20.91;29.43
16100;BME280;8154;50.830;12.082;2023-02-28T13:20:21;100657.44;;;20.90;29.66
16100;BME280;8154;50.830;12.082;2023-02-28T13:22:55;100661.78;;;20.91;29.52
16100;BME280;8154;50.830;12.082;2023-02-28T13:27:55;100654.13;;;20.88;29.62
16100;BME280;8154;50.830;12.082;2023-02-28T13:33:36;100663.16;;;20.95;29.53
16100;BME280;8154;50.830;12.082;2023-02-28T13:44:06;100655.38;;;20.84;29.59
16100;BME280;8154;50.830;12.082;2023-02-28T13:46:36;100650.53;;;20.79;29.63
16100;BME280;8154;50.830;12.082;2023-02-28T13:51:55;100651.22;;;20.81;29.73
16100;BME280;8154;50.830;12.082;2023-02-28T14:37:38;100629.72;;;20.75;29.73
16100;BME280;8154;50.830;12.082;2023-02-28T14:55:35;100617.97;;;20.77;29.58
16100;BME280;8154;50.830;12.082;2023-02-28T14:58:04;100612.66;;;20.77;29.60
16100;BME280;8154;50.830;12.082;2023-02-28T15:00:37;100616.28;;;20.76;29.63
16100;BME280;8154;50.830;12.082;2023-02-28T15:03:38;100616.84;;;20.80;29.63
16100;BME280;8154;50.830;12.082;2023-02-28T15:06:16;100623.28;;;20.77;29.62
16100;BME280;8154;50.830;12.082;2023-02-28T15:08:44;100622.44;;;20.77;29.66
16100;BME280;8154;50.830;12.082;2023-02-28T15:11:20;100616.97;;;20.78;29.60
16100;BME280;8154;50.830;12.082;2023-02-28T15:13:52;100612.13;;;20.74;29.64
16100;BME280;8154;50.830;12.082;2023-02-28T15:19:30;100613.78;;;20.75;29.65
16100;BME280;8154;50.830;12.082;2023-02-28T15:22:04;100621.59;;;20.76;29.58
16100;BME280;8154;50.830;12.082;2023-02-28T15:24:41;100616.03;;;20.70;29.82
16100;BME280;8154;50.830;12.082;2023-02-28T15:27:16;100614.38;;;20.69;30.10
16100;BME280;8154;50.830;12.082;2023-02-28T15:29:54;100612.13;;;20.74;29.77
16100;BME280;8154;50.830;12.082;2023-02-28T15:32:32;100619.41;;;20.72;29.64
16100;BME280;8154;50.830;12.082;2023-02-28T15:35:25;100622.16;;;20.80;29.63
16100;BME280;8154;50.830;12.082;2023-02-28T15:37:54;100621.31;;;20.79;29.69
16100;BME280;8154;50.830;12.082;2023-02-28T15:40:54;100621.59;;;20.76;29.59
16100;BME280;8154;50.830;12.082;2023-02-28T15:43:32;100616.59;;;20.73;29.69
16100;BME280;8154;50.830;12.082;2023-02-28T15:46:02;100616.75;;;20.72;29.73
16100;BME280;8154;50.830;12.082;2023-02-28T15:48:30;100614.38;;;20.69;29.77
16100;BME280;8154;50.830;12.082;2023-02-28T15:51:20;100613.38;;;20.70;29.68
16100;BME280;8154;50.830;12.082;2023-02-28T15:56:42;100614.84;;;20.64;29.93
16100;BME280;8154;50.830;12.082;2023-02-28T15:59:16;100610.38;;;20.65;29.91
16100;BME280;8154;50.830;12.082;2023-02-28T16:01:45;100618.03;;;20.68;29.78
16100;BME280;8154;50.830;12.082;2023-02-28T16:04:17;100623.50;;;20.66;29.70
16100;BME280;8154;50.830;12.082;2023-02-28T16:06:44;100611.88;;;20.67;29.66
16100;BME280;8154;50.830;12.082;2023-02-28T16:09:15;100615.22;;;20.69;29.70
16100;BME280;8154;50.830;12.082;2023-02-28T16:11:47;100620.00;;;20.66;29.75
16100;BME280;8154;50.830;12.082;2023-02-28T16:14:16;100616.34;;;20.67;29.64
16100;BME280;8154;50.830;12.082;2023-02-28T16:16:46;100618.03;;;20.68;29.66
16100;BME280;8154;50.830;12.082;2023-02-28T16:19:12;100617.50;;;20.64;29.68
16100;BME280;8154;50.830;12.082;2023-02-28T16:21:39;100618.34;;;20.65;29.80
16100;BME280;8154;50.830;12.082;2023-02-28T16:24:05;100622.09;;;20.62;29.77
16100;BME280;8154;50.830;12.082;2023-02-28T16:26:31;100618.63;;;20.62;29.73
16100;BME280;8154;50.830;12.082;2023-02-28T16:29:01;100630.53;;;20.58;29.83
16100;BME280;8154;50.830;12.082;2023-02-28T16:31:28;100629.47;;;20.51;29.93
16100;BME280;8154;50.830;12.082;2023-02-28T16:33:54;100633.78;;;20.52;29.95
16100;BME280;8154;50.830;12.082;2023-02-28T16:36:23;100625.22;;;20.58;29.96
16100;BME280;8154;50.830;12.082;2023-02-28T16:38:54;100632.44;;;20.65;29.80
16100;BME280;8154;50.830;12.082;2023-02-28T16:41:22;100632.88;;;20.61;29.72
16100;BME280;8154;50.830;12.082;2023-02-28T16:43:52;100632.06;;;20.60;29.85
16100;BME280;8154;50.830;12.082;2023-02-28T16:46:20;100635.47;;;20.70;29.61
16100;BME280;8154;50.830;12.082;2023-02-28T16:48:46;100630.63;;;20.66;29.77
16100;BME280;8154;50.830;12.082;2023-02-28T16:51:18;100636.09;;;20.64;29.69
16100;BME280;8154;50.830;12.082;2023-02-28T16:53:44;100642.84;;;20.59;29.76
16100;BME280;8154;50.830;12.082;2023-02-28T16:56:22;100654.44;;;20.58;30.00
16100;BME280;8154;50.830;12.082;2023-02-28T16:58:50;100644.50;;;20.60;29.91
16100;BME280;8154;50.830;12.082;2023-02-28T17:01:17;100643.81;;;20.58;29.74
16100;BME280;8154;50.830;12.082;2023-02-28T17:03:48;100646.91;;;20.53;29.86
16100;BME280;8154;50.830;12.082;2023-02-28T17:06:26;100647.19;;;20.50;30.04
16100;BME280;8154;50.830;12.082;2023-02-28T17:08:55;100652.47;;;20.60;29.89
16100;BME280;8154;50.830;12.082;2023-02-28T17:11:22;100652.03;;;20.64;29.81
16100;BME280;8154;50.830;12.082;2023-02-28T17:13:48;100649.66;;;20.61;29.77
16100;BME280;8154;50.830;12.082;2023-02-28T17:16:26;100652.78;;;20.57;29.93
16100;BME280;8154;50.830;12.082;2023-02-28T17:18:55;100658.09;;;20.57;29.85
16100;BME280;8154;50.830;12.082;2023-02-28T17:21:22;100659.44;;;20.61;29.73
16100;BME280;8154;50.830;12.082;2023-02-28T17:23:49;100669.09;;;20.62;29.77
16100;BME280;8154;50.830;12.082;2023-02-28T17:26:17;100656.63;;;20.62;29.84
16100;BME280;8154;50.830;12.082;2023-02-28T17:28:46;100656.41;;;20.56;29.77
16100;BME280;8154;50.830;12.082;2023-02-28T17:31:13;100668.41;;;20.60;29.80
16100;BME280;8154;50.830;12.082;2023-02-28T17:33:40;100677.88;;;20.62;29.79
16100;BME280;8154;50.830;12.082;2023-02-28T17:36:09;100670.50;;;20.56;29.83
16100;BME280;8154;50.830;12.082;2023-02-28T17:38:37;100675.28;;;20.53;29.87
16100;BME280;8154;50.830;12.082;2023-02-28T17:41:03;100679.44;;;20.65;29.62
16100;BME280;8154;50.830;12.082;2023-02-28T17:43:29;100684.44;;;20.68;29.68
16100;BME280;8154;50.830;12.082;2023-02-28T17:45:57;100676.06;;;20.63;29.91
16100;BME280;8154;50.830;12.082;2023-02-28T17:48:24;100675.94;;;20.64;29.79
16100;BME280;8154;50.830;12.082;2023-02-28T17:50:50;100679.28;;;20.66;29.68
16100;BME280;8154;50.830;12.082;2023-02-28T17:53:17;100677.06;;;20.62;29.84
16100;BME280;8154;50.830;12.082;2023-02-28T17:55:43;100671.16;;;20.68;29.85
16100;BME280;8154;50.830;12.082;2023-02-28T22:01:04;100685.28;;;20.41;30.18
16100;BME280;8154;50.830;12.082;2023-02-28T22:03:30;100687.91;;;20.41;30.19
16100;BME280;8154;50.830;12.082;2023-02-28T22:05:56;100687.22;;;20.39;30.26
16100;BME280;8154;50.830;12.082;2023-02-28T22:08:22;100692.81;;;20.36;30.46
16100;BME280;8154;50.830;12.082;2023-02-28T22:10:50;100681.75;;;20.41;30.10
16100;BME280;8154;50.830;12.082;2023-02-28T22:13:16;100682.75;;;20.40;30.17
16100;BME280;8154;50.830;12.082;2023-02-28T22:15:42;100688.06;;;20.40;30.06
16100;BME280;8154;50.830;12.082;2023-02-28T22:18:08;100685.28;;;20.41;30.19
16100;BME280;8154;50.830;12.082;2023-02-28T22:20:34;100688.91;;;20.40;30.18
16100;BME280;8154;50.830;12.082;2023-02-28T22:23:00;100690.44;;;20.43;30.08
16100;BME280;8154;50.830;12.082;2023-02-28T22:25:28;100690.44;;;20.43;30.12
16100;BME280;8154;50.830;12.082;2023-02-28T22:27:54;100680.09;;;20.40;30.04
16100;BME280;8154;50.830;12.082;2023-02-28T22:30:20;100678.59;;;20.37;30.29
16100;BME280;8154;50.830;12.082;2023-02-28T22:32:46;100686.41;;;20.39;30.35
16100;BME280;8154;50.830;12.082;2023-02-28T22:35:13;100685.72;;;20.37;30.31
16100;BME280;8154;50.830;12.082;2023-02-28T22:37:39;100681.75;;;20.41;30.09
16100;BME280;8154;50.830;12.082;2023-02-28T22:40:06;100685.81;;;20.45;29.97
16100;BME280;8154;50.830;12.082;2023-02-28T22:42:32;100693.38;;;20.40;30.01
16100;BME280;8154;50.830;12.082;2023-02-28T22:44:59;100690.56;;;20.41;30.18
16100;BME280;8154;50.830;12.082;2023-02-28T22:47:25;100697.19;;;20.37;30.05
16100;BME280;8154;50.830;12.082;2023-02-28T22:49:51;100688.06;;;20.40;30.08
16100;BME280;8154;50.830;12.082;2023-02-28T22:52:17;100684.16;;;20.34;30.09
16100;BME280;8154;50.830;12.082;2023-02-28T22:54:48;100685.84;;;20.35;30.28
16100;BME280;8154;50.830;12.082;2023-02-28T22:57:14;100682.06;;;20.38;30.00
